createdAt,value
2023-03-16T00:02:41.894Z,11.05
2023-03-16T00:06:25.688Z,14.55
2023-03-16T00:10:08.223Z,12.77
2023-03-16T00:13:49.981Z,12.57
2023-03-16T00:17:31.792Z,15.35
2023-03-16T00:21:14.247Z,12.23
2023-03-16T00:24:56.882Z,9.80
2023-03-16T00:28:38.861Z,14.20
2023-03-16T00:32:23.618Z,12.85
2023-03-16T00:36:09.352Z,14.85
2023-03-16T00:39:52.372Z,13.23
2023-03-16T00:43:41.034Z,14.27
2023-03-16T00:47:24.737Z,10.88
2023-03-16T00:51:08.848Z,16.27
2023-03-16T00:54:52.994Z,8.38
2023-03-16T00:58:36.841Z,8.55
2023-03-16T01:02:23.319Z,11.45
2023-03-16T01:06:17.308Z,8.60
2023-03-16T01:09:59.209Z,13.85
2023-03-16T01:13:40.963Z,10.93
2023-03-16T01:17:23.251Z,10.65
2023-03-16T01:21:07.881Z,9.68
2023-03-16T01:24:49.572Z,7.47
2023-03-16T01:28:34.271Z,12.75
2023-03-16T01:32:15.977Z,16.15
2023-03-16T01:36:04.158Z,10.93
2023-03-16T01:39:46.223Z,10.70
2023-03-16T01:43:30.312Z,16.60
2023-03-16T01:47:14.594Z,6.80
2023-03-16T01:50:57.273Z,13.27
2023-03-16T01:54:51.842Z,16.20
2023-03-16T01:58:34.025Z,7.95
2023-03-16T02:02:20.136Z,13.05
2023-03-16T02:06:05.030Z,9.25
2023-03-16T02:09:49.960Z,13.40
2023-03-16T02:13:36.617Z,7.43
2023-03-16T02:17:25.313Z,10.50
2023-03-16T02:21:11.620Z,7.30
2023-03-16T02:24:54.853Z,9.65
2023-03-16T02:29:11.562Z,10.60
2023-03-16T02:32:54.779Z,14.35
2023-03-16T02:36:37.879Z,9.32
2023-03-16T02:40:29.623Z,15.10
2023-03-16T02:44:24.830Z,9.88
2023-03-16T02:48:14.616Z,13.82
2023-03-16T02:51:57.518Z,12.80
2023-03-16T02:55:39.508Z,11.25
2023-03-16T02:59:21.537Z,10.90
2023-03-16T03:03:03.504Z,10.35
2023-03-16T03:06:45.281Z,13.23
2023-03-16T03:10:27.557Z,9.55
2023-03-16T03:14:09.422Z,16.58
2023-03-16T03:17:51.215Z,12.52
2023-03-16T03:21:32.990Z,7.15
2023-03-16T03:25:16.933Z,13.43
2023-03-16T03:28:58.648Z,13.02
2023-03-16T03:32:40.939Z,7.00
2023-03-16T03:36:22.676Z,7.53
2023-03-16T03:40:11.849Z,12.65
2023-03-16T03:43:53.545Z,13.05
2023-03-16T03:47:35.342Z,7.53
2023-03-16T03:51:17.240Z,6.90
2023-03-16T03:54:59.023Z,10.90
2023-03-16T03:58:40.963Z,12.30
2023-03-16T04:02:23.162Z,8.93
2023-03-16T04:06:07.123Z,9.55
2023-03-16T04:09:48.969Z,11.77
2023-03-16T04:13:31.119Z,11.52
2023-03-16T04:17:12.899Z,11.80
2023-03-16T04:20:55.190Z,12.55
2023-03-16T04:24:36.989Z,13.48
2023-03-16T04:28:18.822Z,12.18
2023-03-16T04:32:00.654Z,10.68
2023-03-16T04:35:42.421Z,11.98
2023-03-16T04:39:24.230Z,19.05
2023-03-16T04:43:06.071Z,10.52
2023-03-16T04:46:47.811Z,10.45
2023-03-16T04:50:29.885Z,14.27
2023-03-16T04:54:11.769Z,10.90
2023-03-16T04:57:53.556Z,10.15
2023-03-16T05:01:35.377Z,17.35
2023-03-16T05:05:17.789Z,15.18
2023-03-16T05:09:00.997Z,16.45
2023-03-16T05:12:42.840Z,11.15
2023-03-16T05:16:24.633Z,15.65
2023-03-16T05:20:08.851Z,14.13
2023-03-16T05:23:51.663Z,15.52
2023-03-16T05:27:34.235Z,13.20
2023-03-16T05:31:16.008Z,14.40
2023-03-16T05:34:58.578Z,15.73
2023-03-16T05:38:40.283Z,12.77
2023-03-16T05:42:22.031Z,12.93
2023-03-16T05:46:03.886Z,14.95
2023-03-16T05:49:46.057Z,13.77
2023-03-16T05:53:29.043Z,14.43
2023-03-16T05:57:10.914Z,12.68
2023-03-16T06:00:52.619Z,14.07
2023-03-16T06:04:34.539Z,10.85
2023-03-16T06:08:16.343Z,17.77
2023-03-16T06:11:58.161Z,13.45
2023-03-16T06:15:40.656Z,9.38
2023-03-16T06:19:22.725Z,10.85
2023-03-16T06:23:04.573Z,12.43
2023-03-16T06:26:46.343Z,14.10
2023-03-16T06:30:28.487Z,13.30
2023-03-16T06:34:10.382Z,16.77
2023-03-16T06:37:52.219Z,13.63
2023-03-16T06:41:35.776Z,7.20
2023-03-16T06:45:17.914Z,13.82
2023-03-16T06:49:00.971Z,15.73
2023-03-16T06:52:42.802Z,9.90
2023-03-16T06:56:25.254Z,15.80
2023-03-16T07:00:08.111Z,9.13
2023-03-16T07:03:50.095Z,11.40
2023-03-16T07:07:31.800Z,9.90
2023-03-16T07:11:14.913Z,11.85
2023-03-16T07:14:56.734Z,9.90
2023-03-16T07:18:39.911Z,10.77
2023-03-16T07:22:22.113Z,10.65
2023-03-16T07:26:03.903Z,11.30
2023-03-16T07:29:45.935Z,15.07
2023-03-16T07:33:27.682Z,11.30
2023-03-16T07:37:09.515Z,7.07
2023-03-16T07:40:54.029Z,9.35
2023-03-16T07:44:35.883Z,12.30
2023-03-16T07:48:18.512Z,11.60
2023-03-16T07:52:00.342Z,10.27
2023-03-16T07:55:42.969Z,11.73
2023-03-16T07:59:24.698Z,9.63
2023-03-16T08:03:06.859Z,9.35
2023-03-16T08:06:48.724Z,8.35
2023-03-16T08:10:31.485Z,7.88
2023-03-16T08:14:13.492Z,10.60
2023-03-16T08:17:55.685Z,11.82
2023-03-16T08:21:53.152Z,17.50
2023-03-16T08:25:39.306Z,9.90
2023-03-16T08:29:21.230Z,8.15
2023-03-16T08:33:03.459Z,10.02
2023-03-16T08:36:45.428Z,8.50
2023-03-16T08:40:29.702Z,11.52
2023-03-16T08:44:13.101Z,8.75
2023-03-16T08:47:54.829Z,11.23
2023-03-16T08:51:37.121Z,6.65
2023-03-16T08:55:18.995Z,13.20
2023-03-16T08:59:00.778Z,10.13
2023-03-16T09:02:43.019Z,9.23
2023-03-16T09:06:24.857Z,11.38
2023-03-16T09:10:07.464Z,8.35
2023-03-16T09:13:51.831Z,11.52
2023-03-16T09:17:34.729Z,13.65
2023-03-16T09:21:16.946Z,12.73
2023-03-16T09:24:59.126Z,9.18
2023-03-16T09:28:44.634Z,8.35
2023-03-16T09:32:28.228Z,13.48
2023-03-16T09:36:11.952Z,8.07
2023-03-16T09:39:57.935Z,11.82
2023-03-16T09:44:05.156Z,6.25
2023-03-16T09:47:50.487Z,14.00
2023-03-16T09:51:56.394Z,8.23
2023-03-16T09:55:39.596Z,11.10
2023-03-16T09:59:22.574Z,12.48
2023-03-16T10:03:26.188Z,11.13
2023-03-16T10:07:26.439Z,12.27
2023-03-16T10:11:23.184Z,15.35
2023-03-16T10:15:15.339Z,14.15
2023-03-16T10:19:17.105Z,13.63
2023-03-16T10:23:02.187Z,8.68
2023-03-16T10:26:49.080Z,10.32
2023-03-16T10:30:34.096Z,10.82
2023-03-16T10:34:16.026Z,13.05
2023-03-16T10:37:58.614Z,7.85
2023-03-16T10:41:44.196Z,8.93
2023-03-16T10:45:29.646Z,18.83
2023-03-16T10:49:42.055Z,10.93
2023-03-16T10:53:34.940Z,12.10
2023-03-16T10:57:25.712Z,6.82
2023-03-16T11:01:31.954Z,18.08
2023-03-16T11:05:35.335Z,11.07
2023-03-16T11:09:24.919Z,10.30
2023-03-16T11:13:11.544Z,15.45
2023-03-16T11:17:17.745Z,11.13
2023-03-16T11:21:14.364Z,9.45
2023-03-16T11:25:16.938Z,7.95
2023-03-16T11:29:09.727Z,11.48
2023-03-16T11:32:54.080Z,12.05
2023-03-16T11:36:44.915Z,12.23
2023-03-16T11:40:59.076Z,9.10
2023-03-16T11:45:07.432Z,7.80
2023-03-16T11:49:06.676Z,10.15
2023-03-16T11:52:54.272Z,9.85
2023-03-16T11:56:51.988Z,10.77
2023-03-16T12:00:56.394Z,3.72
2023-03-16T12:04:51.199Z,15.55
2023-03-16T12:08:57.598Z,7.13
2023-03-16T12:13:30.394Z,8.30
2023-03-16T12:17:23.201Z,8.25
2023-03-16T12:21:13.023Z,14.52
2023-03-16T12:24:55.188Z,8.32
2023-03-16T12:28:37.446Z,12.15
2023-03-16T12:32:33.199Z,8.68
2023-03-16T12:36:42.798Z,10.13
2023-03-16T12:40:40.585Z,10.38
2023-03-16T12:44:46.009Z,10.18
2023-03-16T12:48:36.767Z,9.43
2023-03-16T12:52:18.976Z,15.38
2023-03-16T12:56:06.735Z,8.65
2023-03-16T12:59:54.498Z,8.90
2023-03-16T13:03:36.864Z,13.93
2023-03-16T13:07:22.681Z,15.48
2023-03-16T13:11:06.044Z,13.93
2023-03-16T13:14:49.590Z,10.70
2023-03-16T13:18:38.598Z,12.50
2023-03-16T13:22:29.032Z,17.23
2023-03-16T13:26:23.330Z,15.82
2023-03-16T13:30:31.230Z,13.57
2023-03-16T13:34:18.341Z,10.70
2023-03-16T13:38:13.510Z,12.93
2023-03-16T13:42:08.528Z,10.95
2023-03-16T13:45:50.342Z,11.70
2023-03-16T13:49:32.116Z,13.32
2023-03-16T13:53:18.554Z,14.55
2023-03-16T13:57:03.702Z,10.60
2023-03-16T14:00:45.867Z,17.98
2023-03-16T14:04:32.823Z,13.70
2023-03-16T14:08:24.726Z,8.95
2023-03-16T14:12:06.668Z,12.70
2023-03-16T14:15:48.671Z,15.80
2023-03-16T14:19:36.050Z,12.57
2023-03-16T14:23:28.532Z,9.60
2023-03-16T14:27:21.845Z,12.95
2023-03-16T14:31:09.901Z,12.95
2023-03-16T14:34:51.897Z,13.27
2023-03-16T14:38:36.920Z,11.90
2023-03-16T14:42:28.898Z,12.32
2023-03-16T14:46:26.452Z,10.23
2023-03-16T14:50:13.957Z,15.67
2023-03-16T14:53:55.643Z,13.90
2023-03-16T14:57:37.499Z,13.95
2023-03-16T15:01:19.311Z,12.18
2023-03-16T15:05:02.846Z,13.52
2023-03-16T15:08:46.903Z,12.73
2023-03-16T15:12:28.800Z,14.40
2023-03-16T15:16:12.639Z,12.90
2023-03-16T15:19:54.679Z,10.32
2023-03-16T15:23:36.716Z,16.90
2023-03-16T15:27:22.659Z,14.30
2023-03-16T15:31:05.060Z,10.15
2023-03-16T15:34:46.968Z,13.93
2023-03-16T15:38:34.744Z,8.82
2023-03-16T15:42:18.601Z,17.88
2023-03-16T15:46:00.386Z,14.25
2023-03-16T15:49:47.726Z,12.93
2023-03-16T15:53:34.663Z,10.52
2023-03-16T15:57:17.712Z,9.57
2023-03-16T16:01:01.140Z,9.48
2023-03-16T16:04:43.828Z,12.07
2023-03-16T16:08:25.706Z,12.32
2023-03-16T16:12:13.808Z,13.13
2023-03-16T16:19:40.056Z,14.13
2023-03-16T16:23:21.932Z,14.27
2023-03-16T16:27:03.882Z,10.18
2023-03-16T16:30:46.269Z,10.02
2023-03-16T16:34:28.209Z,11.93
2023-03-16T16:38:09.955Z,9.90
2023-03-16T16:41:54.722Z,12.10
2023-03-16T16:45:36.932Z,16.23
2023-03-16T16:49:22.528Z,12.98
2023-03-16T16:53:20.676Z,14.88
2023-03-16T16:57:02.947Z,14.60
2023-03-16T17:00:45.733Z,16.20
2023-03-16T17:04:29.404Z,12.80
2023-03-16T17:08:12.413Z,11.88
2023-03-16T17:11:56.283Z,9.30
2023-03-16T17:15:39.267Z,9.18
2023-03-16T17:19:23.533Z,11.18
2023-03-16T17:23:34.950Z,10.45
2023-03-16T17:27:31.343Z,11.05
2023-03-16T17:31:19.436Z,15.73
2023-03-16T17:35:01.204Z,15.90
2023-03-16T17:38:43.035Z,8.57
2023-03-16T17:42:26.483Z,9.05
2023-03-16T17:46:10.466Z,9.02
2023-03-16T17:49:53.277Z,7.32
2023-03-16T17:53:35.249Z,9.77
2023-03-16T17:57:24.593Z,9.00
2023-03-16T18:01:06.696Z,8.00
2023-03-16T18:04:48.429Z,10.32
2023-03-16T18:08:34.096Z,11.35
2023-03-16T18:12:16.600Z,7.90
2023-03-16T18:15:59.518Z,6.10
2023-03-16T18:19:43.416Z,8.32
2023-03-16T18:23:27.915Z,8.60
2023-03-16T18:27:10.173Z,8.40
2023-03-16T18:30:53.495Z,12.60
2023-03-16T18:34:35.566Z,10.18
2023-03-16T18:38:30.620Z,10.57
2023-03-16T18:42:20.947Z,11.30
2023-03-16T18:46:02.758Z,6.47
2023-03-16T18:49:48.847Z,6.07
2023-03-16T18:53:30.642Z,8.27
2023-03-16T18:57:28.770Z,8.00
2023-03-16T19:01:21.424Z,10.23
2023-03-16T19:05:07.164Z,8.63
2023-03-16T19:08:48.997Z,9.40
2023-03-16T19:12:30.894Z,7.15
2023-03-16T19:16:19.401Z,7.35
2023-03-16T19:20:01.121Z,6.28
2023-03-16T19:23:44.105Z,8.68
2023-03-16T19:27:35.385Z,7.10
2023-03-16T19:31:24.142Z,13.93
2023-03-16T19:35:16.061Z,9.63
2023-03-16T19:39:01.885Z,7.38
2023-03-16T19:42:47.777Z,7.55
2023-03-16T19:46:32.443Z,7.43
2023-03-16T19:50:20.086Z,5.97
2023-03-16T19:54:03.255Z,6.13
2023-03-16T19:57:51.009Z,6.45
2023-03-16T20:01:36.104Z,4.90
2023-03-16T20:05:21.637Z,5.32
2023-03-16T20:09:03.623Z,6.38
2023-03-16T20:12:46.870Z,3.78
2023-03-16T20:16:31.649Z,6.80
2023-03-16T20:20:24.405Z,5.85
2023-03-16T20:24:17.560Z,4.00
2023-03-16T20:28:02.134Z,4.43
2023-03-16T20:31:44.011Z,2.80
2023-03-16T20:35:29.137Z,4.05
2023-03-16T20:39:11.121Z,5.45
2023-03-16T20:42:53.789Z,2.70
2023-03-16T20:46:35.732Z,2.83
2023-03-16T20:50:29.481Z,2.80
2023-03-16T20:54:11.240Z,2.50
2023-03-16T20:57:54.260Z,2.60
2023-03-16T21:01:38.828Z,2.70
2023-03-16T21:05:21.854Z,2.70
2023-03-16T21:09:03.664Z,3.00
2023-03-16T21:12:48.271Z,2.67
2023-03-16T21:16:30.372Z,2.88
2023-03-16T21:20:18.551Z,2.67
2023-03-16T21:24:03.281Z,2.75
2023-03-16T21:27:46.296Z,2.63
2023-03-16T21:31:28.152Z,2.38
2023-03-16T21:35:14.867Z,2.10
2023-03-16T21:38:57.115Z,2.22
2023-03-16T21:42:38.852Z,2.05
2023-03-16T21:46:23.079Z,1.95
2023-03-16T21:50:23.175Z,4.28
2023-03-16T21:54:07.989Z,1.50
2023-03-16T21:57:51.530Z,2.10
2023-03-16T22:01:38.250Z,2.08
2023-03-16T22:05:33.421Z,1.50
2023-03-16T22:09:22.872Z,1.50
2023-03-16T22:13:05.120Z,1.98
2023-03-16T22:16:47.624Z,1.70
2023-03-16T22:20:29.766Z,2.63
2023-03-16T22:24:16.700Z,5.10
2023-03-16T22:27:58.966Z,2.22
2023-03-16T22:31:41.274Z,1.67
2023-03-16T22:35:34.546Z,2.47
2023-03-16T22:39:16.647Z,2.47
2023-03-16T22:43:03.117Z,2.97
2023-03-16T22:46:45.461Z,3.05
2023-03-16T22:50:30.008Z,3.67
2023-03-16T22:54:16.885Z,3.65
2023-03-16T22:58:22.804Z,3.65
2023-03-16T23:02:06.472Z,2.92
2023-03-16T23:05:48.682Z,5.35
2023-03-16T23:09:30.881Z,5.75
2023-03-16T23:13:21.898Z,6.63
2023-03-16T23:17:03.713Z,8.35
2023-03-16T23:20:46.230Z,8.82
2023-03-16T23:24:27.991Z,10.00
2023-03-16T23:28:15.385Z,7.55
2023-03-16T23:31:57.734Z,10.45
2023-03-16T23:35:41.151Z,8.20
2023-03-16T23:39:23.257Z,7.63
2023-03-16T23:43:05.615Z,10.27
2023-03-16T23:46:47.450Z,8.23
2023-03-16T23:50:33.466Z,11.98
2023-03-16T23:54:23.654Z,9.27
2023-03-16T23:58:05.353Z,9.25
